CheckWX is a tool to help pilots better visualize weather data.  It is not intended as a substitute for an official pre-flight weather briefing.

03:01:35 UTC

2I0 METAR
Madisonville Regional Airport
Madisonville, Kentucky, USA
Current

27 mins ago

K2I0 290235Z AUTO 27005KT 10SM SCT041 BKN050 BKN075 05/M01 A3013 RMK AO2 T00451013
Observed
Feb-29 @ 02:35 UTC
Wind
  • 270° at 5 KTS
Visibility
10 SM
Flight Rules
VFR
Cloud Levels
  • Scattered at 4,100' AGL
  • Broken at 5,000' AGL
  • Broken at 7,500' AGL
Temperature
C / 41°F
Dewpoint
-1°C / 30°F
Humidity
66%
Altimeter
30.13" Hg
Pressure
1020.32 hPa
Previous

47 mins ago

K2I0 290215Z AUTO 27006KT 10SM SCT041 SCT050 05/M01 A3013 RMK AO2 T00451015
Observed
Feb-29 @ 02:15 UTC
Wind
  • 270° at 6 KTS
Visibility
10 SM
Flight Rules
VFR
Cloud Levels
  • Scattered at 4,100' AGL
  • Scattered at 5,000' AGL
Temperature
C / 41°F
Dewpoint
-2°C / 28°F
Humidity
61%
Altimeter
30.13" Hg
Pressure
1020.32 hPa
Previous

1 hour ago

K2I0 290155Z AUTO 26006KT 10SM SCT075 05/M02 A3012 RMK AO2 T00481016
Observed
Feb-29 @ 01:55 UTC
Wind
  • 260° at 6 KTS
Visibility
10 SM
Flight Rules
VFR
Cloud Levels
  • Scattered at 7,500' AGL
Temperature
C / 41°F
Dewpoint
-2°C / 28°F
Humidity
61%
Altimeter
30.12" Hg
Pressure
1020.02 hPa